Time;durP1;ratioP1;P1;durP2;ratioP2;P2;SDS_P1;SDS_P2;PMS_P1;PMS_P2;Temp;Humidity;BMP_temperature;BMP_pressure;BME280_temperature;BME280_humidity;BME280_pressure;Samples;Min_cycle;Max_cycle;Signal;HPM_P1;HPM_P2
2023/12/27 00:00:37;;;;;;;2.13;2.03;;;6.80;99.90;;;;;;5058069;28;20044;-90
2023/12/27 00:03:04;;;;;;;2.08;1.98;;;6.90;99.90;;;;;;5086500;27;20063;-89
2023/12/27 00:05:30;;;;;;;1.90;1.80;;;6.70;99.90;;;;;;5064176;28;20044;-91
2023/12/27 00:07:56;;;;;;;1.80;1.70;;;6.80;99.90;;;;;;5061902;28;20085;-90
2023/12/27 00:10:22;;;;;;;1.90;1.80;;;6.90;99.90;;;;;;5081754;28;20386;-91
2023/12/27 00:12:48;;;;;;;1.90;1.80;;;6.70;99.90;;;;;;5063361;28;20047;-91
2023/12/27 00:15:14;;;;;;;1.70;1.60;;;6.60;99.90;;;;;;5064283;28;20061;-89
2023/12/27 00:17:40;;;;;;;1.67;1.58;;;6.50;99.90;;;;;;5064274;28;20088;-90
2023/12/27 00:20:06;;;;;;;1.63;1.52;;;6.70;99.90;;;;;;5062488;28;20108;-90
2023/12/27 00:22:32;;;;;;;1.60;1.50;;;6.50;99.90;;;;;;5063020;28;20116;-91
2023/12/27 00:24:59;;;;;;;1.50;1.40;;;6.70;99.90;;;;;;5062669;28;20469;-91
2023/12/27 00:27:25;;;;;;;1.50;1.40;;;6.50;99.90;;;;;;5099567;28;20040;-89
2023/12/27 00:29:50;;;;;;;1.58;1.48;;;6.90;99.90;;;;;;5067807;28;20040;-89
2023/12/27 00:32:16;;;;;;;1.58;1.48;;;6.60;99.90;;;;;;5071985;28;20496;-90
2023/12/27 00:34:42;;;;;;;1.58;1.48;;;6.50;99.90;;;;;;5068552;28;20047;-89
2023/12/27 00:37:09;;;;;;;1.50;1.40;;;6.80;99.90;;;;;;5069481;28;20047;-90
2023/12/27 00:39:35;;;;;;;1.30;1.30;;;6.50;99.90;;;;;;5072694;28;20134;-90
2023/12/27 00:42:01;;;;;;;1.38;1.38;;;6.80;99.90;;;;;;5072001;28;20126;-88
2023/12/27 00:44:27;;;;;;;1.30;1.30;;;6.50;99.90;;;;;;5087352;28;20468;-90
2023/12/27 00:46:52;;;;;;;1.33;1.33;;;6.80;99.90;;;;;;5089135;28;20070;-91
2023/12/27 00:49:18;;;;;;;1.30;1.30;;;6.50;99.90;;;;;;5069030;28;20057;-91
2023/12/27 00:51:44;;;;;;;1.30;1.30;;;6.80;99.90;;;;;;5070398;28;20775;-88
2023/12/27 00:54:10;;;;;;;1.20;1.20;;;6.40;99.90;;;;;;5068646;28;20081;-90
2023/12/27 00:56:36;;;;;;;1.20;1.20;;;6.70;99.90;;;;;;5069489;28;20119;-91
2023/12/27 00:59:02;;;;;;;1.20;1.20;;;6.80;99.90;;;;;;5068510;28;20067;-89
2023/12/27 01:01:31;;;;;;;1.20;1.20;;;6.80;99.90;;;;;;5068908;28;20124;-90
2023/12/27 01:03:57;;;;;;;1.17;1.17;;;6.30;99.90;;;;;;5065993;28;20127;-90
2023/12/27 01:06:23;;;;;;;1.10;1.10;;;6.80;99.90;;;;;;5065616;28;20126;-89
2023/12/27 01:08:49;;;;;;;1.10;1.10;;;6.30;99.90;;;;;;5066749;28;20060;-90
2023/12/27 01:11:14;;;;;;;1.00;1.00;;;6.30;99.90;;;;;;5068797;28;20047;-90
2023/12/27 01:13:40;;;;;;;1.00;1.00;;;6.70;99.90;;;;;;5067779;28;20048;-90
2023/12/27 01:16:06;;;;;;;1.00;1.00;;;6.40;99.90;;;;;;5070297;28;20036;-90
2023/12/27 01:18:32;;;;;;;1.10;1.10;;;6.20;99.90;;;;;;5065004;28;20047;-90
2023/12/27 01:20:58;;;;;;;1.10;1.10;;;6.80;99.90;;;;;;5083490;28;20036;-91
2023/12/27 01:23:23;;;;;;;1.00;1.00;;;6.20;99.90;;;;;;5070131;28;20040;-89
2023/12/27 01:25:49;;;;;;;1.00;1.00;;;6.20;99.90;;;;;;5088182;28;20055;-90
2023/12/27 01:28:15;;;;;;;1.00;1.00;;;6.30;99.90;;;;;;5068361;28;20126;-89
2023/12/27 01:30:41;;;;;;;1.10;1.10;;;6.20;99.90;;;;;;5070532;28;20044;-89
2023/12/27 01:33:06;;;;;;;1.10;1.10;;;6.20;99.90;;;;;;5070807;28;20040;-90
2023/12/27 01:35:32;;;;;;;1.05;1.05;;;6.80;99.90;;;;;;5074337;28;20040;-90
2023/12/27 01:37:58;;;;;;;1.10;1.10;;;6.70;99.90;;;;;;5074922;28;20511;-89
2023/12/27 01:40:24;;;;;;;1.02;1.02;;;6.50;99.90;;;;;;5085633;28;20653;-90
2023/12/27 01:42:49;;;;;;;1.10;1.10;;;6.10;99.90;;;;;;5090370;28;20040;-90
2023/12/27 01:45:15;;;;;;;1.10;1.10;;;6.10;99.90;;;;;;5073514;28;20547;-90
2023/12/27 01:47:42;;;;;;;1.10;1.10;;;6.50;99.90;;;;;;5090226;28;20044;-90
2023/12/27 01:50:09;;;;;;;1.00;1.00;;;5.90;99.90;;;;;;5074661;28;20043;-91
2023/12/27 01:52:39;;;;;;;1.10;1.10;;;6.50;99.90;;;;;;5072968;28;20039;-89
2023/12/27 01:55:06;;;;;;;1.00;1.00;;;5.90;99.90;;;;;;5090211;28;20784;-88
2023/12/27 01:57:32;;;;;;;0.90;0.90;;;5.90;99.90;;;;;;5075908;28;20036;-91
2023/12/27 01:59:58;;;;;;;0.90;0.90;;;6.20;99.90;;;;;;5071642;28;20044;-88
2023/12/27 02:02:25;;;;;;;0.90;0.90;;;6.40;99.90;;;;;;5091076;28;20404;-91
2023/12/27 02:04:50;;;;;;;0.90;0.90;;;5.90;99.90;;;;;;5073334;28;20155;-91
2023/12/27 02:07:17;;;;;;;0.90;0.90;;;6.60;99.90;;;;;;5070978;28;20111;-89
2023/12/27 02:09:44;;;;;;;0.90;0.90;;;5.90;99.90;;;;;;5072824;28;20049;-90
2023/12/27 02:12:09;;;;;;;1.00;1.00;;;6.30;99.90;;;;;;5088826;28;20161;-90
2023/12/27 02:14:37;;;;;;;0.90;0.90;;;6.00;99.90;;;;;;5073849;28;20073;-90
2023/12/27 02:17:03;;;;;;;0.90;0.90;;;6.00;99.90;;;;;;5103507;28;20732;-89
2023/12/27 02:19:29;;;;;;;0.90;0.90;;;5.90;99.90;;;;;;5070201;28;20048;-90
2023/12/27 02:21:57;;;;;;;1.00;1.00;;;5.90;99.90;;;;;;5069712;28;20477;-91
2023/12/27 02:24:32;;;;;;;0.90;0.90;;;6.50;99.90;;;;;;5075724;28;20092;-90
2023/12/27 02:26:58;;;;;;;0.90;0.90;;;6.00;99.90;;;;;;5064731;28;20066;-90
2023/12/27 02:29:23;;;;;;;0.93;0.93;;;5.90;99.90;;;;;;5075131;28;20473;-88
2023/12/27 02:31:49;;;;;;;0.90;0.90;;;6.40;99.90;;;;;;5070128;28;20600;-91
2023/12/27 02:34:15;;;;;;;0.90;0.90;;;5.70;99.90;;;;;;5070819;28;20469;-90
2023/12/27 02:36:41;;;;;;;0.90;0.90;;;5.70;99.90;;;;;;5066039;28;20035;-90
2023/12/27 02:39:06;;;;;;;0.90;0.90;;;6.10;99.90;;;;;;5081841;28;20401;-90
2023/12/27 02:41:32;;;;;;;0.90;0.90;;;6.40;99.90;;;;;;5070258;28;20039;-90
2023/12/27 02:43:58;;;;;;;0.90;0.90;;;6.50;99.90;;;;;;5068578;28;20059;-91
2023/12/27 02:46:23;;;;;;;0.90;0.90;;;6.10;99.90;;;;;;5072435;28;20047;-89
2023/12/27 02:48:49;;;;;;;0.90;0.90;;;6.30;99.90;;;;;;5070614;28;20044;-91
2023/12/27 02:51:15;;;;;;;0.80;0.80;;;6.40;99.90;;;;;;5069607;28;20058;-91
2023/12/27 02:53:41;;;;;;;0.90;0.90;;;6.30;99.90;;;;;;5073705;28;20036;-90
2023/12/27 02:56:08;;;;;;;0.88;0.88;;;5.70;99.90;;;;;;5073689;28;20050;-91
2023/12/27 02:58:34;;;;;;;0.90;0.90;;;5.90;99.90;;;;;;5070482;28;20039;-90
2023/12/27 03:00:59;;;;;;;0.90;0.90;;;5.70;99.90;;;;;;5075147;28;20594;-90
2023/12/27 03:03:25;;;;;;;0.90;0.90;;;5.70;99.90;;;;;;5070668;28;20073;-91
2023/12/27 03:05:51;;;;;;;0.90;0.90;;;6.50;99.90;;;;;;5072108;28;20184;-91
2023/12/27 03:08:17;;;;;;;0.80;0.80;;;6.60;99.90;;;;;;5077709;28;20042;-91
2023/12/27 03:10:42;;;;;;;0.80;0.80;;;6.20;99.90;;;;;;5072996;28;20047;-91
2023/12/27 03:13:08;;;;;;;0.90;0.90;;;5.90;99.90;;;;;;5069304;28;20073;-91
2023/12/27 03:15:34;;;;;;;0.80;0.80;;;6.70;99.90;;;;;;5072119;28;20169;-90
2023/12/27 03:18:00;;;;;;;0.80;0.80;;;5.90;99.90;;;;;;5071730;28;20634;-90
2023/12/27 03:20:25;;;;;;;0.90;0.90;;;6.00;99.90;;;;;;5075633;28;20050;-91
2023/12/27 03:22:51;;;;;;;0.90;0.90;;;6.20;99.90;;;;;;5065878;28;20044;-90
2023/12/27 03:25:17;;;;;;;0.90;0.90;;;6.00;99.90;;;;;;5068802;28;20485;-89
2023/12/27 03:27:43;;;;;;;1.00;1.00;;;6.60;99.90;;;;;;5070218;28;20043;-92
2023/12/27 03:30:09;;;;;;;0.90;0.90;;;6.30;99.90;;;;;;5069240;28;20044;-91
2023/12/27 03:32:35;;;;;;;0.90;0.90;;;6.00;99.90;;;;;;5069866;28;20035;-92
2023/12/27 03:35:01;;;;;;;0.90;0.90;;;6.20;99.90;;;;;;5069146;28;20051;-93
2023/12/27 03:37:26;;;;;;;0.90;0.90;;;6.00;99.90;;;;;;5068471;28;20132;-90
2023/12/27 03:39:54;;;;;;;0.90;0.90;;;6.00;99.90;;;;;;5069087;28;20043;-91
2023/12/27 03:42:20;;;;;;;0.90;0.90;;;5.90;99.90;;;;;;5083222;28;20508;-91
2023/12/27 03:44:52;;;;;;;0.90;0.90;;;5.60;99.90;;;;;;5068190;28;20047;-89
2023/12/27 03:47:19;;;;;;;0.90;0.90;;;6.20;99.90;;;;;;5066052;28;20036;-91
2023/12/27 03:49:48;;;;;;;0.85;0.85;;;6.20;99.90;;;;;;5054309;28;20051;-93
2023/12/27 03:52:17;;;;;;;0.80;0.80;;;5.90;99.90;;;;;;5069828;28;20048;-93
2023/12/27 03:54:43;;;;;;;0.90;0.90;;;6.40;99.90;;;;;;5069679;28;20046;-92
2023/12/27 03:57:09;;;;;;;0.90;0.90;;;6.40;99.90;;;;;;5068104;27;20040;-92
2023/12/27 03:59:38;;;;;;;0.90;0.90;;;5.70;99.90;;;;;;5070641;28;20047;-92
2023/12/27 04:02:07;;;;;;;0.90;0.90;;;6.20;99.90;;;;;;5081351;28;20101;-91
2023/12/27 04:04:33;;;;;;;0.90;0.90;;;6.40;99.90;;;;;;5088170;28;20051;-91
2023/12/27 04:06:59;;;;;;;0.90;0.90;;;5.90;99.90;;;;;;5071034;28;20527;-93
2023/12/27 04:09:25;;;;;;;0.80;0.80;;;6.50;99.90;;;;;;5073589;28;20039;-92
2023/12/27 04:11:51;;;;;;;0.90;0.90;;;6.50;99.90;;;;;;5071329;28;20205;-92
2023/12/27 04:14:18;;;;;;;0.82;0.82;;;5.90;99.90;;;;;;5072197;28;20062;-92
2023/12/27 04:16:44;;;;;;;0.80;0.80;;;6.70;99.90;;;;;;5070802;28;20054;-91
2023/12/27 04:19:10;;;;;;;0.80;0.80;;;6.80;99.90;;;;;;5058455;28;20040;-92
2023/12/27 04:21:35;;;;;;;0.80;0.80;;;6.40;99.90;;;;;;5072922;28;20100;-92
2023/12/27 04:24:04;;;;;;;0.90;0.90;;;6.00;99.90;;;;;;5072829;28;20067;-93
2023/12/27 04:26:30;;;;;;;0.90;0.90;;;6.30;99.90;;;;;;5091235;28;20130;-92
2023/12/27 04:28:56;;;;;;;0.90;0.90;;;5.60;99.90;;;;;;5071335;28;20135;-92
2023/12/27 04:31:24;;;;;;;0.88;0.88;;;5.70;99.90;;;;;;5070311;28;20549;-93
2023/12/27 04:33:55;;;;;;;0.85;0.85;;;6.10;99.90;;;;;;5069320;28;20040;-93
2023/12/27 04:36:28;;;;;;;0.90;0.90;;;5.60;99.90;;;;;;5069273;28;20044;-92
2023/12/27 04:39:09;;;;;;;0.90;0.90;;;6.60;99.90;;;;;;5070848;28;20496;-93
2023/12/27 04:41:35;;;;;;;0.90;0.90;;;6.50;99.90;;;;;;5058739;28;20044;-92
2023/12/27 04:44:04;;;;;;;0.80;0.80;;;6.40;99.90;;;;;;5068007;28;20438;-93
2023/12/27 04:46:30;;;;;;;0.80;0.80;;;6.60;99.90;;;;;;5072945;28;20040;-93
2023/12/27 04:49:09;;;;;;;;;;;;;;;;;;;;;
2023/12/27 04:51:39;;;;;;;0.80;0.80;;;6.50;99.90;;;;;;5087851;28;20144;-93
2023/12/27 04:54:22;;;;;;;0.80;0.80;;;6.50;99.90;;;;;;5086537;28;20052;-93
2023/12/27 04:57:26;;;;;;;0.90;0.90;;;5.70;99.90;;;;;;5061308;28;20082;-94
2023/12/27 05:07:46;;;;;;;;;;;;;;;;;;;;;
2023/12/27 05:10:44;;;;;;;0.80;0.80;;;6.60;99.90;;;;;;5007276;28;20053;-93
2023/12/27 05:13:39;;;;;;;0.80;0.80;;;6.40;99.90;;;;;;4993553;28;20053;-93
2023/12/27 05:16:27;;;;;;;0.88;0.88;;;6.60;99.90;;;;;;5047984;28;20057;-93
2023/12/27 05:19:25;;;;;;;0.80;0.80;;;6.40;99.90;;;;;;5039919;28;20052;-92
2023/12/27 05:22:16;;;;;;;0.90;0.90;;;6.80;99.90;;;;;;5039693;28;20088;-93
2023/12/27 05:24:42;;;;;;;0.90;0.90;;;6.50;99.90;;;;;;5031105;28;20047;-92
2023/12/27 05:27:14;;;;;;;0.95;0.95;;;6.10;99.90;;;;;;5045701;28;20044;-93
2023/12/27 05:29:40;;;;;;;0.90;0.90;;;5.80;99.90;;;;;;5049799;28;20097;-91
2023/12/27 05:32:15;;;;;;;0.90;0.90;;;6.00;99.90;;;;;;5062019;28;20057;-92
2023/12/27 05:35:32;;;;;;;0.88;0.88;;;5.80;99.90;;;;;;5030548;28;20044;-94
2023/12/27 05:38:00;;;;;;;0.88;0.88;;;6.00;99.90;;;;;;5042004;28;20063;-93
2023/12/27 05:40:41;;;;;;;0.90;0.90;;;6.10;99.90;;;;;;5045155;28;20133;-93
2023/12/27 05:43:18;;;;;;;0.90;0.90;;;6.40;99.90;;;;;;5043656;28;20048;-93
2023/12/27 05:45:44;;;;;;;0.90;0.90;;;5.90;99.90;;;;;;5043946;28;20052;-92
2023/12/27 05:48:31;;;;;;;0.90;0.90;;;6.00;99.90;;;;;;5045107;28;20041;-94
2023/12/27 05:51:33;;;;;;;;;;;;;;;;;;;;;
2023/12/27 05:54:26;;;;;;;0.90;0.90;;;6.10;99.90;;;;;;5040656;28;20048;-93
2023/12/27 05:57:33;;;;;;;0.90;0.90;;;6.20;99.90;;;;;;5027826;28;20501;-94
2023/12/27 06:00:47;;;;;;;0.88;0.88;;;6.10;99.90;;;;;;5043481;28;20060;-93
2023/12/27 06:03:51;;;;;;;0.90;0.90;;;7.00;99.90;;;;;;5002398;28;20131;-93
2023/12/27 06:06:46;;;;;;;0.90;0.90;;;6.90;99.90;;;;;;5037883;28;20056;-93
2023/12/27 06:09:22;;;;;;;0.90;0.90;;;6.50;99.90;;;;;;5035393;28;20091;-93
2023/12/27 06:11:54;;;;;;;0.90;0.90;;;7.10;99.90;;;;;;5021829;28;20132;-94
2023/12/27 06:14:22;;;;;;;0.90;0.90;;;6.20;99.90;;;;;;5009252;28;20490;-92
2023/12/27 06:17:20;;;;;;;0.90;0.90;;;6.30;99.90;;;;;;5012064;28;20052;-93
2023/12/27 06:20:37;;;;;;;0.90;0.90;;;6.40;99.90;;;;;;5005759;28;20068;-93
2023/12/27 06:23:17;;;;;;;0.90;0.90;;;6.40;99.90;;;;;;5011824;28;20077;-94
2023/12/27 06:26:13;;;;;;;0.90;0.90;;;6.50;99.90;;;;;;5008160;28;20053;-93
2023/12/27 06:28:54;;;;;;;0.90;0.90;;;6.40;99.90;;;;;;4997634;28;20115;-93
2023/12/27 06:31:39;;;;;;;;;;;;;;;;;;;;;
2023/12/27 06:34:12;;;;;;;0.90;0.90;;;7.40;99.90;;;;;;5021578;28;20041;-92
2023/12/27 06:36:51;;;;;;;;;;;;;;;;;;;;;
2023/12/27 06:39:28;;;;;;;1.00;1.00;;;7.40;99.90;;;;;;5038621;28;20100;-93
2023/12/27 06:41:57;;;;;;;0.90;0.90;;;6.60;99.90;;;;;;5008465;28;20041;-92
2023/12/27 06:44:28;;;;;;;0.90;0.90;;;6.90;99.90;;;;;;5010994;28;20149;-91
2023/12/27 06:46:56;;;;;;;1.00;1.00;;;6.80;99.90;;;;;;5005713;28;20045;-91
2023/12/27 06:49:28;;;;;;;1.00;1.00;;;7.40;99.90;;;;;;5006609;28;20053;-93
2023/12/27 06:52:00;;;;;;;1.02;1.02;;;7.50;99.90;;;;;;5013118;28;20053;-89
2023/12/27 06:54:28;;;;;;;1.00;1.00;;;6.70;99.90;;;;;;5007785;28;20103;-91
2023/12/27 06:56:59;;;;;;;1.00;1.00;;;7.50;99.90;;;;;;5007161;28;20041;-92
2023/12/27 06:59:33;;;;;;;1.00;1.00;;;6.80;99.90;;;;;;5014269;28;20095;-93
2023/12/27 07:02:08;;;;;;;1.00;1.00;;;6.70;99.90;;;;;;5011709;28;20052;-93
2023/12/27 07:05:00;;;;;;;1.00;1.00;;;6.70;99.90;;;;;;5008807;28;20045;-93
2023/12/27 07:07:32;;;;;;;1.00;1.00;;;6.60;99.90;;;;;;5010512;28;20051;-92
2023/12/27 07:10:06;;;;;;;1.00;1.00;;;6.70;99.90;;;;;;5010290;28;20041;-92
2023/12/27 07:15:58;;;;;;;1.00;1.00;;;7.50;99.90;;;;;;5019748;28;20553;-92
2023/12/27 07:18:27;;;;;;;0.90;0.90;;;6.80;99.90;;;;;;5011866;28;20517;-92
2023/12/27 07:20:53;;;;;;;1.00;1.00;;;6.80;99.90;;;;;;5015935;28;20052;-92
2023/12/27 07:23:19;;;;;;;1.00;1.00;;;7.60;99.90;;;;;;5008181;28;20041;-89
2023/12/27 07:25:48;;;;;;;0.90;0.90;;;7.00;99.90;;;;;;5023295;28;20116;-92
2023/12/27 07:28:20;;;;;;;1.00;1.00;;;7.80;99.90;;;;;;5011063;28;20044;-92
2023/12/27 07:30:45;;;;;;;1.00;1.00;;;7.10;99.90;;;;;;5011109;28;20491;-91
2023/12/27 07:33:16;;;;;;;1.05;1.05;;;7.80;99.90;;;;;;5009720;28;20044;-91
2023/12/27 07:35:45;;;;;;;1.00;1.00;;;7.40;99.90;;;;;;5009624;28;20053;-93
2023/12/27 07:38:24;;;;;;;1.00;1.00;;;7.30;99.90;;;;;;5008400;28;20533;-92
2023/12/27 07:40:55;;;;;;;1.00;1.00;;;7.20;99.90;;;;;;4995697;28;20045;-93
2023/12/27 07:43:37;;;;;;;1.00;1.00;;;7.80;99.90;;;;;;5004279;28;20085;-93
2023/12/27 07:48:50;;;;;;;1.10;1.10;;;7.70;99.90;;;;;;5127731;27;20481;-88
2023/12/27 07:51:18;;;;;;;1.10;1.10;;;7.80;99.90;;;;;;5092211;28;20092;-92
2023/12/27 07:53:44;;;;;;;1.10;1.10;;;7.50;99.90;;;;;;5106683;28;20128;-91
2023/12/27 07:56:15;;;;;;;1.00;1.00;;;7.80;99.90;;;;;;5092877;28;20075;-90
2023/12/27 07:58:48;;;;;;;1.00;1.00;;;7.80;99.90;;;;;;5094079;28;20118;-92
2023/12/27 08:01:17;;;;;;;1.10;1.10;;;7.60;99.90;;;;;;5090281;28;20046;-92
2023/12/27 08:03:49;;;;;;;1.10;1.10;;;7.60;99.90;;;;;;5091069;28;20040;-92
2023/12/27 08:06:15;;;;;;;1.10;1.10;;;7.80;99.90;;;;;;5090843;28;20047;-91
2023/12/27 08:08:55;;;;;;;1.10;1.10;;;7.90;99.90;;;;;;5110360;28;20124;-91
2023/12/27 08:11:22;;;;;;;1.10;1.10;;;8.00;99.90;;;;;;5091066;28;20621;-90
2023/12/27 08:13:48;;;;;;;1.10;1.10;;;7.80;99.90;;;;;;5088981;28;20035;-91
2023/12/27 08:16:14;;;;;;;1.13;1.13;;;7.60;99.90;;;;;;5088542;28;20506;-90
2023/12/27 08:18:39;;;;;;;1.13;1.13;;;7.70;99.90;;;;;;5088192;28;20054;-89
2023/12/27 08:21:08;;;;;;;1.13;1.13;;;8.00;99.90;;;;;;5090209;28;20573;-92
2023/12/27 08:23:45;;;;;;;1.10;1.10;;;8.00;99.90;;;;;;5088964;28;20058;-93
2023/12/27 08:26:14;;;;;;;1.25;1.25;;;7.90;99.90;;;;;;5087450;28;20055;-92
2023/12/27 08:28:46;;;;;;;1.20;1.20;;;8.00;99.90;;;;;;5086930;28;20138;-94
2023/12/27 08:31:18;;;;;;;1.08;1.08;;;7.80;99.90;;;;;;5094558;28;20079;-91
2023/12/27 08:33:48;;;;;;;1.20;1.20;;;7.60;99.90;;;;;;5091419;28;20611;-91
2023/12/27 08:36:14;;;;;;;1.30;1.30;;;8.10;99.90;;;;;;5091998;28;20506;-89
2023/12/27 08:38:41;;;;;;;1.38;1.38;;;7.60;99.90;;;;;;5095966;28;20137;-91
2023/12/27 08:41:09;;;;;;;1.20;1.20;;;7.90;99.90;;;;;;5093236;28;20481;-92
2023/12/27 08:43:37;;;;;;;1.30;1.30;;;8.00;99.90;;;;;;5089239;27;20039;-91
2023/12/27 08:46:05;;;;;;;1.20;1.20;;;7.90;99.90;;;;;;5091416;28;20043;-90
2023/12/27 08:48:31;;;;;;;1.30;1.30;;;8.20;99.90;;;;;;5090222;28;20047;-92
2023/12/27 08:50:59;;;;;;;1.10;1.10;;;8.10;99.90;;;;;;5093896;28;20043;-92
2023/12/27 08:53:25;;;;;;;1.30;1.30;;;7.90;99.90;;;;;;5090629;28;20063;-93
2023/12/27 08:55:50;;;;;;;1.30;1.30;;;8.20;99.90;;;;;;5087253;28;20043;-91
2023/12/27 08:58:19;;;;;;;1.30;1.30;;;8.10;99.90;;;;;;5089394;28;20043;-92
2023/12/27 09:00:45;;;;;;;1.08;1.08;;;8.20;99.90;;;;;;5058527;28;20513;-92
2023/12/27 09:03:11;;;;;;;1.30;1.30;;;8.30;99.90;;;;;;5067075;28;20105;-91
2023/12/27 09:05:37;;;;;;;1.30;1.30;;;8.00;99.90;;;;;;5073065;28;20057;-91
2023/12/27 09:08:03;;;;;;;1.50;1.42;;;8.20;99.90;;;;;;5077097;28;20566;-90
2023/12/27 09:10:29;;;;;;;1.30;1.30;;;8.10;99.90;;;;;;5074942;28;20050;-91
2023/12/27 09:12:55;;;;;;;1.35;1.35;;;8.10;99.90;;;;;;5074952;28;20051;-92
2023/12/27 09:15:21;;;;;;;1.50;1.40;;;8.40;99.90;;;;;;5074050;28;20039;-91
2023/12/27 09:17:47;;;;;;;1.30;1.30;;;8.50;99.90;;;;;;5073881;28;20165;-89
2023/12/27 09:20:12;;;;;;;1.63;1.52;;;8.20;99.90;;;;;;5072206;28;20040;-92
2023/12/27 09:22:38;;;;;;;1.45;1.40;;;8.20;99.90;;;;;;5076554;28;20040;-90
2023/12/27 09:25:05;;;;;;;1.55;1.45;;;8.40;99.90;;;;;;5074500;28;20451;-90
2023/12/27 09:27:31;;;;;;;1.48;1.40;;;8.20;99.90;;;;;;5090443;28;20051;-90
2023/12/27 09:29:57;;;;;;;1.20;1.20;;;8.50;99.90;;;;;;5072741;28;20096;-91
2023/12/27 09:32:22;;;;;;;1.52;1.42;;;8.50;99.90;;;;;;5074088;28;20035;-90
2023/12/27 09:34:48;;;;;;;1.42;1.38;;;8.60;99.90;;;;;;5075395;28;20065;-93
2023/12/27 09:37:14;;;;;;;1.35;1.35;;;8.30;99.90;;;;;;5078199;28;20055;-92
2023/12/27 09:39:40;;;;;;;1.30;1.30;;;8.60;99.90;;;;;;5076903;28;20127;-92
2023/12/27 09:42:08;;;;;;;1.30;1.30;;;8.60;99.90;;;;;;5077817;28;20043;-92
2023/12/27 09:44:36;;;;;;;1.50;1.40;;;8.50;99.90;;;;;;5075364;28;20052;-90
2023/12/27 09:47:03;;;;;;;1.50;1.40;;;8.70;99.90;;;;;;5095369;28;20047;-91
2023/12/27 09:49:31;;;;;;;1.48;1.40;;;8.70;99.90;;;;;;5074053;28;20074;-92
2023/12/27 09:52:00;;;;;;;1.60;1.50;;;8.80;99.90;;;;;;5073437;28;20067;-90
2023/12/27 09:54:26;;;;;;;1.58;1.48;;;8.80;99.90;;;;;;5072417;28;20071;-91
2023/12/27 09:56:53;;;;;;;1.77;1.67;;;8.80;99.90;;;;;;5075572;28;20078;-92
2023/12/27 09:59:26;;;;;;;1.73;1.63;;;8.80;99.90;;;;;;5073972;28;20108;-91
2023/12/27 10:01:57;;;;;;;1.75;1.65;;;8.80;99.90;;;;;;5071480;28;20136;-91
2023/12/27 10:04:55;;;;;;;1.70;1.60;;;8.90;99.90;;;;;;5087787;28;20077;-93
2023/12/27 10:07:23;;;;;;;1.30;1.30;;;8.90;99.90;;;;;;5071101;28;20043;-91
2023/12/27 10:09:50;;;;;;;1.60;1.50;;;8.90;99.90;;;;;;5070455;28;20051;-91
2023/12/27 10:12:16;;;;;;;1.73;1.63;;;8.90;99.90;;;;;;5072743;28;20092;-90
2023/12/27 10:14:43;;;;;;;1.88;1.77;;;9.00;99.90;;;;;;5074418;28;20039;-91
2023/12/27 10:17:09;;;;;;;1.77;1.67;;;8.80;99.90;;;;;;5074769;28;20476;-90
2023/12/27 10:19:44;;;;;;;1.73;1.63;;;9.00;99.90;;;;;;5075932;28;20138;-88
2023/12/27 10:22:12;;;;;;;1.70;1.60;;;8.80;99.90;;;;;;5073331;28;20058;-91
2023/12/27 10:24:41;;;;;;;1.70;1.60;;;8.90;99.90;;;;;;5072178;28;20039;-92
2023/12/27 10:27:16;;;;;;;1.60;1.50;;;9.00;99.90;;;;;;5070279;28;20093;-90
2023/12/27 10:29:49;;;;;;;1.75;1.65;;;9.00;99.90;;;;;;5073928;28;20047;-92
2023/12/27 10:32:18;;;;;;;1.73;1.63;;;8.90;99.90;;;;;;5068029;28;20055;-92
2023/12/27 10:34:45;;;;;;;1.80;1.70;;;9.00;99.90;;;;;;5072427;28;20138;-92
2023/12/27 10:37:12;;;;;;;1.80;1.70;;;9.00;99.90;;;;;;5069688;28;20039;-90
2023/12/27 10:39:44;;;;;;;1.83;1.73;;;9.10;99.90;;;;;;5071678;28;20079;-91
2023/12/27 10:42:13;;;;;;;1.80;1.70;;;8.70;99.90;;;;;;5070661;28;20050;-89
2023/12/27 10:44:38;;;;;;;1.88;1.77;;;8.80;99.90;;;;;;5085528;28;20455;-90
2023/12/27 10:47:08;;;;;;;1.88;1.77;;;9.00;99.90;;;;;;5070346;28;20043;-91
2023/12/27 10:49:41;;;;;;;1.88;1.77;;;9.00;99.90;;;;;;5072774;28;20050;-93
2023/12/27 10:52:11;;;;;;;1.83;1.73;;;8.80;99.90;;;;;;5072509;28;20039;-91
2023/12/27 10:54:42;;;;;;;1.30;1.30;;;8.90;99.90;;;;;;5071148;28;20416;-88
2023/12/27 10:57:17;;;;;;;1.67;1.58;;;9.10;99.90;;;;;;5073729;28;20051;-90
2023/12/27 10:59:47;;;;;;;1.67;1.58;;;9.00;99.90;;;;;;5071116;28;20046;-90
2023/12/27 11:02:13;;;;;;;1.70;1.60;;;8.80;99.90;;;;;;5073700;28;20047;-92
2023/12/27 11:04:42;;;;;;;1.30;1.30;;;9.20;99.90;;;;;;5072189;28;20783;-90
2023/12/27 11:07:09;;;;;;;1.60;1.50;;;8.80;99.90;;;;;;5071817;28;20036;-92
2023/12/27 11:09:38;;;;;;;1.70;1.60;;;9.00;99.90;;;;;;5071474;28;20131;-88
2023/12/27 11:12:07;;;;;;;1.70;1.60;;;9.20;99.90;;;;;;5067037;28;20122;-91
2023/12/27 11:14:37;;;;;;;1.60;1.50;;;8.90;99.90;;;;;;5084664;28;20409;-89
2023/12/27 11:17:05;;;;;;;1.70;1.60;;;9.00;99.90;;;;;;5080911;28;20047;-89
2023/12/27 11:19:33;;;;;;;1.70;1.60;;;9.00;99.90;;;;;;5066960;28;20052;-91
2023/12/27 11:21:59;;;;;;;1.80;1.70;;;9.10;99.90;;;;;;5068724;28;20039;-91
2023/12/27 11:24:24;;;;;;;1.90;1.80;;;9.20;99.90;;;;;;5084883;28;20039;-92
2023/12/27 11:27:00;;;;;;;1.80;1.70;;;9.40;99.90;;;;;;5065499;28;20698;-91
2023/12/27 11:29:28;;;;;;;1.80;1.70;;;9.30;99.90;;;;;;4166354;28;10001546;-93
2023/12/27 11:31:55;;;;;;;1.90;1.80;;;9.50;99.90;;;;;;4989954;28;20192;-91
2023/12/27 11:34:21;;;;;;;2.00;1.90;;;9.50;99.90;;;;;;4989843;28;20084;-92
2023/12/27 11:36:46;;;;;;;2.00;1.90;;;9.10;99.90;;;;;;4990433;28;20491;-93
2023/12/27 11:39:18;;;;;;;2.00;1.90;;;9.30;99.90;;;;;;4990058;28;20152;-92
2023/12/27 11:41:44;;;;;;;2.10;2.00;;;9.10;99.90;;;;;;4989252;28;20141;-93
2023/12/27 11:44:09;;;;;;;2.13;2.03;;;9.10;99.90;;;;;;4989834;28;20168;-92
2023/12/27 11:46:35;;;;;;;2.22;2.13;;;9.60;99.90;;;;;;4989308;28;20069;-91
2023/12/27 11:49:01;;;;;;;2.17;2.08;;;9.60;99.90;;;;;;4974066;28;20042;-94
2023/12/27 11:51:34;;;;;;;2.55;2.45;;;9.70;99.90;;;;;;4973824;28;20078;-90
2023/12/27 11:54:02;;;;;;;2.47;2.38;;;9.30;99.90;;;;;;4990121;28;20049;-90
2023/12/27 11:56:30;;;;;;;2.60;2.50;;;9.60;99.90;;;;;;4979709;28;20050;-92
2023/12/27 11:58:59;;;;;;;2.72;2.55;;;9.30;99.90;;;;;;4972175;28;20057;-93
2023/12/27 12:01:34;;;;;;;2.97;2.78;;;9.40;99.90;;;;;;4984332;28;20058;-89
2023/12/27 12:04:06;;;;;;;3.08;2.88;;;9.40;99.90;;;;;;5031065;28;20155;-90
2023/12/27 12:06:56;;;;;;;3.03;2.83;;;9.30;99.90;;;;;;5048551;28;20045;-92
2023/12/27 12:09:36;;;;;;;3.42;3.22;;;9.30;99.90;;;;;;5047118;28;20045;-90
2023/12/27 12:12:15;;;;;;;3.20;3.00;;;9.50;99.90;;;;;;5028462;28;20044;-90
2023/12/27 12:14:41;;;;;;;3.20;3.00;;;9.80;99.90;;;;;;5031295;28;20131;-92
2023/12/27 12:17:07;;;;;;;3.30;3.10;;;9.50;99.90;;;;;;5030026;28;20131;-90
2023/12/27 12:19:35;;;;;;;3.47;3.28;;;9.80;99.90;;;;;;5062618;28;20051;-92
2023/12/27 12:22:01;;;;;;;3.45;3.25;;;10.10;99.90;;;;;;5033889;28;20071;-90
2023/12/27 12:24:27;;;;;;;3.38;3.17;;;10.20;99.90;;;;;;5048554;28;20040;-91
2023/12/27 12:26:54;;;;;;;3.40;3.20;;;9.80;99.90;;;;;;5032569;28;20122;-89
2023/12/27 12:29:26;;;;;;;3.28;3.08;;;9.80;99.90;;;;;;5031841;28;20041;-89
2023/12/27 12:31:56;;;;;;;3.33;3.13;;;9.90;99.90;;;;;;5046803;28;20090;-90
2023/12/27 12:34:22;;;;;;;3.38;3.17;;;9.90;99.90;;;;;;5036367;28;20055;-91
2023/12/27 12:36:52;;;;;;;3.17;2.97;;;10.20;99.90;;;;;;5037671;28;20332;-90
2023/12/27 12:39:21;;;;;;;3.30;3.10;;;10.20;99.90;;;;;;5050173;28;20457;-90
2023/12/27 12:41:48;;;;;;;3.40;3.20;;;10.30;99.90;;;;;;5050449;28;20037;-91
2023/12/27 12:44:14;;;;;;;3.00;2.80;;;10.00;99.90;;;;;;5034655;28;20032;-90
2023/12/27 12:46:40;;;;;;;3.13;2.92;;;10.30;99.90;;;;;;5035765;28;20058;-91
2023/12/27 12:49:08;;;;;;;3.40;3.20;;;10.40;99.90;;;;;;5052313;28;20032;-91
2023/12/27 12:51:34;;;;;;;3.38;3.17;;;10.50;99.90;;;;;;5046174;28;20053;-90
2023/12/27 12:54:00;;;;;;;3.03;2.83;;;10.30;99.90;;;;;;5036197;28;20143;-91
2023/12/27 12:56:27;;;;;;;3.10;2.90;;;10.30;99.90;;;;;;5036354;28;20040;-90
2023/12/27 12:58:53;;;;;;;3.10;2.90;;;10.10;99.90;;;;;;5034985;28;20048;-89
2023/12/27 13:01:19;;;;;;;2.90;2.70;;;10.30;99.90;;;;;;5050193;28;20044;-91
2023/12/27 13:03:48;;;;;;;2.70;2.60;;;10.20;99.90;;;;;;5052398;28;20040;-91
2023/12/27 13:06:18;;;;;;;2.50;2.40;;;10.40;99.90;;;;;;5032036;28;20048;-91
2023/12/27 13:08:48;;;;;;;2.40;2.30;;;10.60;99.90;;;;;;5033913;28;20123;-90
2023/12/27 13:11:14;;;;;;;2.35;2.25;;;10.70;99.90;;;;;;5048101;28;20044;-90
2023/12/27 13:13:43;;;;;;;2.97;2.78;;;10.30;99.90;;;;;;5035273;28;20379;-92
2023/12/27 13:16:10;;;;;;;2.63;2.53;;;10.40;99.90;;;;;;5032570;28;20050;-90
2023/12/27 13:18:36;;;;;;;2.42;2.33;;;10.50;99.90;;;;;;5048380;28;20064;-90
2023/12/27 13:21:02;;;;;;;3.00;2.80;;;10.40;99.90;;;;;;5034958;28;20048;-90
2023/12/27 13:23:28;;;;;;;2.58;2.47;;;10.80;99.90;;;;;;5053240;28;20334;-90
2023/12/27 13:25:54;;;;;;;2.63;2.53;;;10.70;99.90;;;;;;5035876;28;20560;-91
2023/12/27 13:28:25;;;;;;;2.60;2.50;;;10.70;99.90;;;;;;5052773;28;20067;-91
2023/12/27 13:30:54;;;;;;;2.58;2.47;;;11.00;99.90;;;;;;5031081;28;20398;-90